首页
METAR-TAF:

METAR-TAF

机场 :

弗罗茨瓦夫, 波兰

纬度: 51-06N, 经度: 016-53E, 海拔: 120米

当前天气观测

该预报发布于24分钟前的05:30 UTC
风速7节,风向西南
温度 7°C
湿度 76%
气压 1012 hPa
能见度10公里或以上
多云层高于3400英尺

METAR: EPWR 080530Z 22007KT 9999 BKN034 07/03 Q1012

时间: 06:54 (05:54 UTC)

预报

该预报发布于24分钟前的05:30 UTC
预报有效从08日的 06点(UTC)到 09日的 06点(UTC)
风速8节,风向西南
能见度10公里或以上
多云层高于4000英尺
成为
从 08日的 09点(UTC)到 08日的 11点(UTC)
风速15节,风向南转西南,有时为25节阵风
短暂存在
从 08日的 18点(UTC)到 08日的 23点(UTC)
风速20节,风向南转西南,有时为35节阵风
能見度: 3000
多云层高于3000英尺, 积雨云.
阵雨
短暂存在
从 08日的 23点(UTC)到 09日的 06点(UTC)
能見度: 3000
散云层高于1000英尺
多云层高于2000英尺, 积雨云.
阵雨
成为
从 09日的 02点(UTC)到 09日的 04点(UTC)
风速8节,风向南转西南

TAF: EPWR 080530Z 0806/0906 22008KT 9999 BKN040 BECMG 0809/0811 20015G25KT TEMPO 0818/0823 20020G35KT 3000 SHRA BKN030CB TEMPO 0823/0906 3000 SHRA SCT010 BKN020CB BECMG 0902/0904 21008KT

超过4000个机场的气象观测和天气预报(METAR&TAF报告)。

可查询的气象台以黄色和红色小点在地图上表示。

将鼠标移到小点上方,可查看气象台名称。

然后点击查看天气观测和预报。

如需切换地图:点击带黑十字的绿色按钮放大地图;点击带横线的绿色按钮缩小地图;或者点击绿色箭头查看邻近地区的地图。


METAR-TAF: